Kettlersville, Ohio
Current Conditions -  °F | °C
As of 9:33 PM on Friday 19 Dec 2014 (Local Time) from KAXV Reporting Station
Overcast Overcast  
Wind Chill: 30°   Ceiling: 2300
Heat Index: 30°   Visibility: 10mi
Dew Point: 27°   Wind: 0mph
Humidity: 86%   Direction: NA
Pressure: 30.28"   Gusts: NA
Location:  40.44°N, 84.26°W
Report Text: KAXV 200233Z AUTO 00000KT 10SM OVC023 M01/M03 A3028 RMK AO2
Loading
Personal Weather Stations






























Interactive Weather Map New forecast layout! Learn more

10-Day Weather Forecast

Advertisements
Track Severe Weather on mobile